sensor_id;sensor_type;location;lat;lon;timestamp;P1;durP1;ratioP1;P2;durP2;ratioP2
5696;SDS011;2873;50.966;7.210;2022-12-29T00:02:10;1.00;;;0.50;;
5696;SDS011;2873;50.966;7.210;2022-12-29T00:04:36;0.50;;;0.50;;
5696;SDS011;2873;50.966;7.210;2022-12-29T00:07:01;1.60;;;0.50;;
5696;SDS011;2873;50.966;7.210;2022-12-29T00:09:29;0.50;;;0.50;;
5696;SDS011;2873;50.966;7.210;2022-12-29T00:11:55;0.60;;;0.60;;
5696;SDS011;2873;50.966;7.210;2022-12-29T00:14:20;4.80;;;0.50;;
5696;SDS011;2873;50.966;7.210;2022-12-29T00:17:04;0.70;;;0.60;;
5696;SDS011;2873;50.966;7.210;2022-12-29T00:19:30;0.50;;;0.50;;
5696;SDS011;2873;50.966;7.210;2022-12-29T00:22:14;0.50;;;0.50;;
5696;SDS011;2873;50.966;7.210;2022-12-29T00:24:58;0.60;;;0.60;;
5696;SDS011;2873;50.966;7.210;2022-12-29T00:27:43;0.50;;;0.50;;
5696;SDS011;2873;50.966;7.210;2022-12-29T00:30:27;0.50;;;0.50;;
5696;SDS011;2873;50.966;7.210;2022-12-29T00:33:14;0.50;;;0.50;;
5696;SDS011;2873;50.966;7.210;2022-12-29T00:36:04;0.50;;;0.50;;
5696;SDS011;2873;50.966;7.210;2022-12-29T00:38:33;0.50;;;0.50;;
5696;SDS011;2873;50.966;7.210;2022-12-29T00:41:20;0.50;;;0.50;;
5696;SDS011;2873;50.966;7.210;2022-12-29T00:44:05;0.80;;;0.70;;
5696;SDS011;2873;50.966;7.210;2022-12-29T00:46:31;0.50;;;0.50;;
5696;SDS011;2873;50.966;7.210;2022-12-29T00:48:58;1.00;;;0.60;;
5696;SDS011;2873;50.966;7.210;2022-12-29T00:51:42;0.50;;;0.50;;
5696;SDS011;2873;50.966;7.210;2022-12-29T00:54:08;0.40;;;0.40;;
5696;SDS011;2873;50.966;7.210;2022-12-29T00:56:34;0.60;;;0.50;;
5696;SDS011;2873;50.966;7.210;2022-12-29T00:59:03;0.40;;;0.40;;
5696;SDS011;2873;50.966;7.210;2022-12-29T01:01:32;0.90;;;0.50;;
5696;SDS011;2873;50.966;7.210;2022-12-29T01:03:58;0.40;;;0.40;;
5696;SDS011;2873;50.966;7.210;2022-12-29T01:06:24;0.53;;;0.50;;
5696;SDS011;2873;50.966;7.210;2022-12-29T01:08:50;0.80;;;0.50;;
5696;SDS011;2873;50.966;7.210;2022-12-29T01:11:36;0.40;;;0.40;;
5696;SDS011;2873;50.966;7.210;2022-12-29T01:14:03;0.43;;;0.30;;
5696;SDS011;2873;50.966;7.210;2022-12-29T01:16:28;0.37;;;0.37;;
5696;SDS011;2873;50.966;7.210;2022-12-29T01:18:54;0.50;;;0.50;;
5696;SDS011;2873;50.966;7.210;2022-12-29T01:21:19;0.30;;;0.30;;
5696;SDS011;2873;50.966;7.210;2022-12-29T01:23:45;1.08;;;0.40;;
5696;SDS011;2873;50.966;7.210;2022-12-29T01:26:11;0.40;;;0.40;;
5696;SDS011;2873;50.966;7.210;2022-12-29T01:28:38;0.50;;;0.50;;
5696;SDS011;2873;50.966;7.210;2022-12-29T01:31:05;0.40;;;0.32;;
5696;SDS011;2873;50.966;7.210;2022-12-29T01:33:31;0.55;;;0.40;;
5696;SDS011;2873;50.966;7.210;2022-12-29T01:36:00;0.47;;;0.47;;
5696;SDS011;2873;50.966;7.210;2022-12-29T01:38:26;0.80;;;0.40;;
5696;SDS011;2873;50.966;7.210;2022-12-29T01:40:52;0.40;;;0.40;;
5696;SDS011;2873;50.966;7.210;2022-12-29T01:43:18;0.90;;;0.40;;
5696;SDS011;2873;50.966;7.210;2022-12-29T01:45:44;0.50;;;0.30;;
5696;SDS011;2873;50.966;7.210;2022-12-29T01:48:14;0.47;;;0.47;;
5696;SDS011;2873;50.966;7.210;2022-12-29T01:50:42;0.30;;;0.30;;
5696;SDS011;2873;50.966;7.210;2022-12-29T01:53:16;0.40;;;0.40;;
5696;SDS011;2873;50.966;7.210;2022-12-29T01:55:46;0.70;;;0.30;;
5696;SDS011;2873;50.966;7.210;2022-12-29T01:58:15;1.50;;;0.50;;
5696;SDS011;2873;50.966;7.210;2022-12-29T02:00:44;0.40;;;0.40;;
5696;SDS011;2873;50.966;7.210;2022-12-29T02:03:10;0.50;;;0.50;;
5696;SDS011;2873;50.966;7.210;2022-12-29T02:08:15;1.00;;;0.38;;
5696;SDS011;2873;50.966;7.210;2022-12-29T02:10:42;0.38;;;0.38;;
5696;SDS011;2873;50.966;7.210;2022-12-29T02:13:09;0.45;;;0.45;;
5696;SDS011;2873;50.966;7.210;2022-12-29T02:15:43;0.43;;;0.30;;
5696;SDS011;2873;50.966;7.210;2022-12-29T02:23:44;0.50;;;0.40;;
5696;SDS011;2873;50.966;7.210;2022-12-29T02:29:16;1.15;;;0.55;;
5696;SDS011;2873;50.966;7.210;2022-12-29T02:32:10;0.43;;;0.43;;
5696;SDS011;2873;50.966;7.210;2022-12-29T02:35:01;0.50;;;0.38;;
5696;SDS011;2873;50.966;7.210;2022-12-29T02:40:53;1.10;;;0.50;;
5696;SDS011;2873;50.966;7.210;2022-12-29T02:46:25;2.80;;;0.60;;
5696;SDS011;2873;50.966;7.210;2022-12-29T02:49:05;1.70;;;0.60;;
5696;SDS011;2873;50.966;7.210;2022-12-29T02:54:23;0.75;;;0.68;;
5696;SDS011;2873;50.966;7.210;2022-12-29T02:57:11;0.80;;;0.60;;
5696;SDS011;2873;50.966;7.210;2022-12-29T02:59:46;0.70;;;0.40;;
5696;SDS011;2873;50.966;7.210;2022-12-29T03:02:22;0.80;;;0.60;;
5696;SDS011;2873;50.966;7.210;2022-12-29T03:10:20;0.88;;;0.50;;
5696;SDS011;2873;50.966;7.210;2022-12-29T03:13:11;0.80;;;0.43;;
5696;SDS011;2873;50.966;7.210;2022-12-29T03:16:20;1.10;;;0.50;;
5696;SDS011;2873;50.966;7.210;2022-12-29T03:19:17;1.42;;;0.50;;
5696;SDS011;2873;50.966;7.210;2022-12-29T03:21:54;2.80;;;0.50;;
5696;SDS011;2873;50.966;7.210;2022-12-29T03:24:49;0.50;;;0.50;;
5696;SDS011;2873;50.966;7.210;2022-12-29T03:27:19;0.70;;;0.50;;
5696;SDS011;2873;50.966;7.210;2022-12-29T03:29:49;0.40;;;0.40;;
5696;SDS011;2873;50.966;7.210;2022-12-29T03:32:20;1.67;;;0.40;;
5696;SDS011;2873;50.966;7.210;2022-12-29T03:34:50;0.60;;;0.50;;
5696;SDS011;2873;50.966;7.210;2022-12-29T03:37:18;0.40;;;0.40;;
5696;SDS011;2873;50.966;7.210;2022-12-29T03:39:48;0.60;;;0.50;;
5696;SDS011;2873;50.966;7.210;2022-12-29T03:42:15;1.85;;;0.50;;
5696;SDS011;2873;50.966;7.210;2022-12-29T03:44:44;0.50;;;0.40;;
5696;SDS011;2873;50.966;7.210;2022-12-29T03:47:11;0.90;;;0.90;;
5696;SDS011;2873;50.966;7.210;2022-12-29T03:49:38;0.70;;;0.40;;
5696;SDS011;2873;50.966;7.210;2022-12-29T03:52:04;0.83;;;0.50;;
5696;SDS011;2873;50.966;7.210;2022-12-29T03:54:30;1.60;;;0.50;;
5696;SDS011;2873;50.966;7.210;2022-12-29T03:56:56;0.45;;;0.45;;
5696;SDS011;2873;50.966;7.210;2022-12-29T03:59:22;0.50;;;0.50;;
5696;SDS011;2873;50.966;7.210;2022-12-29T04:01:47;0.50;;;0.50;;
5696;SDS011;2873;50.966;7.210;2022-12-29T04:04:13;1.00;;;0.70;;
5696;SDS011;2873;50.966;7.210;2022-12-29T04:06:38;0.50;;;0.50;;
5696;SDS011;2873;50.966;7.210;2022-12-29T04:09:04;2.00;;;0.45;;
5696;SDS011;2873;50.966;7.210;2022-12-29T04:11:30;0.50;;;0.50;;
5696;SDS011;2873;50.966;7.210;2022-12-29T04:13:55;1.00;;;0.70;;
5696;SDS011;2873;50.966;7.210;2022-12-29T04:16:21;1.87;;;0.50;;
5696;SDS011;2873;50.966;7.210;2022-12-29T04:18:47;1.30;;;0.40;;
5696;SDS011;2873;50.966;7.210;2022-12-29T04:21:12;1.60;;;0.50;;
5696;SDS011;2873;50.966;7.210;2022-12-29T04:23:38;0.50;;;0.50;;
5696;SDS011;2873;50.966;7.210;2022-12-29T04:26:04;0.50;;;0.50;;
5696;SDS011;2873;50.966;7.210;2022-12-29T04:28:34;0.50;;;0.40;;
5696;SDS011;2873;50.966;7.210;2022-12-29T04:31:00;1.60;;;0.50;;
5696;SDS011;2873;50.966;7.210;2022-12-29T04:33:26;0.50;;;0.50;;
5696;SDS011;2873;50.966;7.210;2022-12-29T04:35:52;0.50;;;0.50;;
5696;SDS011;2873;50.966;7.210;2022-12-29T04:38:19;0.40;;;0.40;;
5696;SDS011;2873;50.966;7.210;2022-12-29T04:40:46;0.77;;;0.40;;
5696;SDS011;2873;50.966;7.210;2022-12-29T04:43:12;1.50;;;0.60;;
5696;SDS011;2873;50.966;7.210;2022-12-29T04:45:38;0.60;;;0.50;;
5696;SDS011;2873;50.966;7.210;2022-12-29T04:48:10;0.47;;;0.40;;
5696;SDS011;2873;50.966;7.210;2022-12-29T04:50:36;0.80;;;0.50;;
5696;SDS011;2873;50.966;7.210;2022-12-29T04:53:02;2.15;;;0.50;;
5696;SDS011;2873;50.966;7.210;2022-12-29T04:55:27;0.60;;;0.60;;
5696;SDS011;2873;50.966;7.210;2022-12-29T04:57:53;1.10;;;0.50;;
5696;SDS011;2873;50.966;7.210;2022-12-29T05:00:18;0.63;;;0.60;;
5696;SDS011;2873;50.966;7.210;2022-12-29T05:02:44;0.60;;;0.60;;
5696;SDS011;2873;50.966;7.210;2022-12-29T05:05:10;0.50;;;0.40;;
5696;SDS011;2873;50.966;7.210;2022-12-29T05:07:35;2.00;;;0.50;;
5696;SDS011;2873;50.966;7.210;2022-12-29T05:10:01;1.53;;;0.63;;
5696;SDS011;2873;50.966;7.210;2022-12-29T05:12:29;0.90;;;0.70;;
5696;SDS011;2873;50.966;7.210;2022-12-29T05:14:55;1.10;;;0.60;;
5696;SDS011;2873;50.966;7.210;2022-12-29T05:17:21;0.40;;;0.40;;
5696;SDS011;2873;50.966;7.210;2022-12-29T05:19:46;0.53;;;0.40;;
5696;SDS011;2873;50.966;7.210;2022-12-29T05:22:12;1.00;;;0.65;;
5696;SDS011;2873;50.966;7.210;2022-12-29T05:24:37;0.60;;;0.60;;
5696;SDS011;2873;50.966;7.210;2022-12-29T05:27:03;0.60;;;0.60;;
5696;SDS011;2873;50.966;7.210;2022-12-29T05:29:28;0.70;;;0.50;;
5696;SDS011;2873;50.966;7.210;2022-12-29T05:31:54;0.60;;;0.60;;
5696;SDS011;2873;50.966;7.210;2022-12-29T05:34:19;0.80;;;0.43;;
5696;SDS011;2873;50.966;7.210;2022-12-29T05:36:45;0.50;;;0.50;;
5696;SDS011;2873;50.966;7.210;2022-12-29T05:39:11;0.80;;;0.50;;
5696;SDS011;2873;50.966;7.210;2022-12-29T05:41:36;0.60;;;0.60;;
5696;SDS011;2873;50.966;7.210;2022-12-29T05:44:02;0.50;;;0.50;;
5696;SDS011;2873;50.966;7.210;2022-12-29T05:46:28;0.60;;;0.40;;
5696;SDS011;2873;50.966;7.210;2022-12-29T05:48:53;1.60;;;0.57;;
5696;SDS011;2873;50.966;7.210;2022-12-29T05:51:19;2.20;;;0.40;;
5696;SDS011;2873;50.966;7.210;2022-12-29T05:53:44;0.30;;;0.30;;
5696;SDS011;2873;50.966;7.210;2022-12-29T05:56:10;1.20;;;0.60;;
5696;SDS011;2873;50.966;7.210;2022-12-29T05:58:36;1.77;;;0.40;;
5696;SDS011;2873;50.966;7.210;2022-12-29T06:01:01;0.40;;;0.40;;
5696;SDS011;2873;50.966;7.210;2022-12-29T06:03:27;1.00;;;0.60;;
5696;SDS011;2873;50.966;7.210;2022-12-29T06:05:52;0.40;;;0.40;;
5696;SDS011;2873;50.966;7.210;2022-12-29T06:08:18;0.50;;;0.50;;
5696;SDS011;2873;50.966;7.210;2022-12-29T06:10:43;0.40;;;0.40;;
5696;SDS011;2873;50.966;7.210;2022-12-29T06:13:09;0.40;;;0.40;;
5696;SDS011;2873;50.966;7.210;2022-12-29T06:15:34;2.30;;;0.40;;
5696;SDS011;2873;50.966;7.210;2022-12-29T06:18:00;0.45;;;0.45;;
5696;SDS011;2873;50.966;7.210;2022-12-29T06:20:26;1.10;;;0.57;;
5696;SDS011;2873;50.966;7.210;2022-12-29T06:22:51;0.80;;;0.50;;
5696;SDS011;2873;50.966;7.210;2022-12-29T06:25:17;1.40;;;0.50;;
5696;SDS011;2873;50.966;7.210;2022-12-29T06:27:42;0.47;;;0.40;;
5696;SDS011;2873;50.966;7.210;2022-12-29T06:30:08;0.50;;;0.50;;
5696;SDS011;2873;50.966;7.210;2022-12-29T06:32:34;0.60;;;0.50;;
5696;SDS011;2873;50.966;7.210;2022-12-29T06:35:00;0.90;;;0.50;;
5696;SDS011;2873;50.966;7.210;2022-12-29T06:37:27;0.50;;;0.50;;
5696;SDS011;2873;50.966;7.210;2022-12-29T06:39:52;0.40;;;0.40;;
5696;SDS011;2873;50.966;7.210;2022-12-29T06:42:18;1.00;;;0.40;;
5696;SDS011;2873;50.966;7.210;2022-12-29T06:44:43;1.70;;;0.47;;
5696;SDS011;2873;50.966;7.210;2022-12-29T06:47:09;0.40;;;0.40;;
5696;SDS011;2873;50.966;7.210;2022-12-29T06:49:35;0.40;;;0.40;;
5696;SDS011;2873;50.966;7.210;2022-12-29T06:52:01;0.40;;;0.30;;
5696;SDS011;2873;50.966;7.210;2022-12-29T06:54:29;0.80;;;0.50;;
5696;SDS011;2873;50.966;7.210;2022-12-29T06:56:55;0.80;;;0.50;;
5696;SDS011;2873;50.966;7.210;2022-12-29T06:59:20;0.50;;;0.40;;
5696;SDS011;2873;50.966;7.210;2022-12-29T07:01:46;0.60;;;0.50;;
5696;SDS011;2873;50.966;7.210;2022-12-29T07:04:11;0.40;;;0.30;;
5696;SDS011;2873;50.966;7.210;2022-12-29T07:06:37;1.35;;;0.30;;
5696;SDS011;2873;50.966;7.210;2022-12-29T07:09:02;0.50;;;0.40;;
5696;SDS011;2873;50.966;7.210;2022-12-29T07:11:28;0.40;;;0.30;;
5696;SDS011;2873;50.966;7.210;2022-12-29T07:13:54;0.70;;;0.37;;
5696;SDS011;2873;50.966;7.210;2022-12-29T07:16:19;2.10;;;0.40;;
5696;SDS011;2873;50.966;7.210;2022-12-29T07:18:45;0.30;;;0.30;;
5696;SDS011;2873;50.966;7.210;2022-12-29T07:21:10;0.57;;;0.30;;
5696;SDS011;2873;50.966;7.210;2022-12-29T07:23:36;0.50;;;0.40;;
5696;SDS011;2873;50.966;7.210;2022-12-29T07:26:06;0.38;;;0.30;;
5696;SDS011;2873;50.966;7.210;2022-12-29T07:28:34;0.40;;;0.30;;
5696;SDS011;2873;50.966;7.210;2022-12-29T07:31:01;0.80;;;0.30;;
5696;SDS011;2873;50.966;7.210;2022-12-29T07:33:29;1.50;;;0.40;;
5696;SDS011;2873;50.966;7.210;2022-12-29T07:35:56;0.80;;;0.40;;
5696;SDS011;2873;50.966;7.210;2022-12-29T07:38:21;1.60;;;0.40;;
5696;SDS011;2873;50.966;7.210;2022-12-29T07:40:47;0.73;;;0.40;;
5696;SDS011;2873;50.966;7.210;2022-12-29T07:43:13;2.40;;;0.30;;
5696;SDS011;2873;50.966;7.210;2022-12-29T07:45:38;0.40;;;0.40;;
5696;SDS011;2873;50.966;7.210;2022-12-29T07:48:04;0.40;;;0.30;;
5696;SDS011;2873;50.966;7.210;2022-12-29T07:50:32;1.15;;;0.40;;
5696;SDS011;2873;50.966;7.210;2022-12-29T07:52:59;0.30;;;0.30;;
5696;SDS011;2873;50.966;7.210;2022-12-29T07:55:24;0.37;;;0.37;;
5696;SDS011;2873;50.966;7.210;2022-12-29T07:57:52;0.70;;;0.40;;
5696;SDS011;2873;50.966;7.210;2022-12-29T08:00:18;0.80;;;0.30;;
5696;SDS011;2873;50.966;7.210;2022-12-29T08:02:44;3.50;;;0.60;;
5696;SDS011;2873;50.966;7.210;2022-12-29T08:05:10;3.07;;;0.50;;
5696;SDS011;2873;50.966;7.210;2022-12-29T08:07:35;1.10;;;0.40;;
5696;SDS011;2873;50.966;7.210;2022-12-29T08:10:01;0.98;;;0.50;;
5696;SDS011;2873;50.966;7.210;2022-12-29T08:12:27;3.00;;;0.50;;
5696;SDS011;2873;50.966;7.210;2022-12-29T08:14:52;0.40;;;0.40;;
5696;SDS011;2873;50.966;7.210;2022-12-29T08:17:18;2.20;;;0.40;;
5696;SDS011;2873;50.966;7.210;2022-12-29T08:19:43;0.90;;;0.40;;
5696;SDS011;2873;50.966;7.210;2022-12-29T08:22:09;2.30;;;0.50;;
5696;SDS011;2873;50.966;7.210;2022-12-29T08:24:35;1.98;;;0.50;;
5696;SDS011;2873;50.966;7.210;2022-12-29T08:27:00;3.77;;;0.60;;
5696;SDS011;2873;50.966;7.210;2022-12-29T08:29:26;1.13;;;0.50;;
5696;SDS011;2873;50.966;7.210;2022-12-29T08:31:52;1.30;;;0.60;;
5696;SDS011;2873;50.966;7.210;2022-12-29T08:34:17;1.70;;;0.70;;
5696;SDS011;2873;50.966;7.210;2022-12-29T08:36:43;0.60;;;0.43;;
5696;SDS011;2873;50.966;7.210;2022-12-29T08:39:08;2.50;;;0.50;;
5696;SDS011;2873;50.966;7.210;2022-12-29T08:41:34;1.00;;;0.50;;
5696;SDS011;2873;50.966;7.210;2022-12-29T08:44:00;2.53;;;0.80;;
5696;SDS011;2873;50.966;7.210;2022-12-29T08:46:25;2.40;;;0.80;;
5696;SDS011;2873;50.966;7.210;2022-12-29T08:48:51;0.60;;;0.50;;
5696;SDS011;2873;50.966;7.210;2022-12-29T08:51:16;1.90;;;0.50;;
5696;SDS011;2873;50.966;7.210;2022-12-29T08:53:42;2.63;;;0.60;;
5696;SDS011;2873;50.966;7.210;2022-12-29T08:56:08;2.33;;;0.70;;
5696;SDS011;2873;50.966;7.210;2022-12-29T08:58:35;1.10;;;0.40;;
5696;SDS011;2873;50.966;7.210;2022-12-29T09:01:01;2.33;;;0.67;;
5696;SDS011;2873;50.966;7.210;2022-12-29T09:03:26;1.70;;;0.50;;
5696;SDS011;2873;50.966;7.210;2022-12-29T09:05:53;1.73;;;0.60;;
5696;SDS011;2873;50.966;7.210;2022-12-29T09:08:19;3.55;;;0.60;;
5696;SDS011;2873;50.966;7.210;2022-12-29T09:10:45;2.03;;;0.60;;
5696;SDS011;2873;50.966;7.210;2022-12-29T09:13:11;1.40;;;0.70;;
5696;SDS011;2873;50.966;7.210;2022-12-29T09:15:37;2.27;;;0.60;;
5696;SDS011;2873;50.966;7.210;2022-12-29T09:18:03;2.03;;;0.60;;
5696;SDS011;2873;50.966;7.210;2022-12-29T09:20:29;4.30;;;0.85;;
5696;SDS011;2873;50.966;7.210;2022-12-29T09:22:55;2.53;;;0.80;;
5696;SDS011;2873;50.966;7.210;2022-12-29T09:25:20;2.20;;;0.60;;
5696;SDS011;2873;50.966;7.210;2022-12-29T09:27:49;2.60;;;0.60;;
5696;SDS011;2873;50.966;7.210;2022-12-29T09:30:17;2.78;;;0.80;;
5696;SDS011;2873;50.966;7.210;2022-12-29T09:32:43;2.80;;;0.50;;
5696;SDS011;2873;50.966;7.210;2022-12-29T09:35:08;2.90;;;0.60;;
5696;SDS011;2873;50.966;7.210;2022-12-29T09:37:34;1.27;;;0.70;;
5696;SDS011;2873;50.966;7.210;2022-12-29T09:39:59;1.70;;;0.50;;
5696;SDS011;2873;50.966;7.210;2022-12-29T09:42:41;3.53;;;0.73;;
5696;SDS011;2873;50.966;7.210;2022-12-29T09:45:29;3.00;;;0.70;;
5696;SDS011;2873;50.966;7.210;2022-12-29T09:48:03;3.60;;;0.70;;
5696;SDS011;2873;50.966;7.210;2022-12-29T09:50:30;4.32;;;0.77;;
5696;SDS011;2873;50.966;7.210;2022-12-29T09:53:15;1.30;;;0.60;;
5696;SDS011;2873;50.966;7.210;2022-12-29T09:56:03;3.50;;;0.63;;
5696;SDS011;2873;50.966;7.210;2022-12-29T09:58:35;3.20;;;0.50;;
5696;SDS011;2873;50.966;7.210;2022-12-29T10:01:05;5.60;;;0.90;;
5696;SDS011;2873;50.966;7.210;2022-12-29T10:09:33;3.40;;;0.80;;
5696;SDS011;2873;50.966;7.210;2022-12-29T10:25:47;3.40;;;1.10;;
5696;SDS011;2873;50.966;7.210;2022-12-29T10:28:37;4.15;;;0.80;;
5696;SDS011;2873;50.966;7.210;2022-12-29T10:31:09;1.90;;;0.88;;
5696;SDS011;2873;50.966;7.210;2022-12-29T10:33:41;4.07;;;0.70;;
5696;SDS011;2873;50.966;7.210;2022-12-29T10:36:29;3.42;;;0.90;;
5696;SDS011;2873;50.966;7.210;2022-12-29T10:39:11;3.27;;;0.97;;
5696;SDS011;2873;50.966;7.210;2022-12-29T10:41:49;2.00;;;0.65;;
5696;SDS011;2873;50.966;7.210;2022-12-29T10:44:24;3.60;;;0.70;;
5696;SDS011;2873;50.966;7.210;2022-12-29T10:46:59;6.73;;;1.20;;
5696;SDS011;2873;50.966;7.210;2022-12-29T10:49:28;6.03;;;0.80;;
5696;SDS011;2873;50.966;7.210;2022-12-29T10:51:57;4.22;;;0.70;;
5696;SDS011;2873;50.966;7.210;2022-12-29T10:54:29;4.20;;;0.70;;
5696;SDS011;2873;50.966;7.210;2022-12-29T10:57:05;3.55;;;0.70;;
5696;SDS011;2873;50.966;7.210;2022-12-29T10:59:36;2.78;;;0.90;;
5696;SDS011;2873;50.966;7.210;2022-12-29T11:07:07;4.05;;;0.95;;
5696;SDS011;2873;50.966;7.210;2022-12-29T11:09:35;4.75;;;0.93;;
5696;SDS011;2873;50.966;7.210;2022-12-29T11:12:18;3.57;;;0.90;;
5696;SDS011;2873;50.966;7.210;2022-12-29T11:14:44;3.47;;;0.80;;
5696;SDS011;2873;50.966;7.210;2022-12-29T11:17:14;3.30;;;0.87;;
5696;SDS011;2873;50.966;7.210;2022-12-29T11:19:41;4.65;;;0.70;;
5696;SDS011;2873;50.966;7.210;2022-12-29T11:22:17;3.60;;;0.80;;
5696;SDS011;2873;50.966;7.210;2022-12-29T11:24:47;5.80;;;0.90;;
5696;SDS011;2873;50.966;7.210;2022-12-29T11:27:16;5.03;;;0.80;;
5696;SDS011;2873;50.966;7.210;2022-12-29T11:29:48;2.53;;;1.00;;
5696;SDS011;2873;50.966;7.210;2022-12-29T11:34:43;5.80;;;0.80;;
5696;SDS011;2873;50.966;7.210;2022-12-29T11:39:57;2.10;;;0.80;;
5696;SDS011;2873;50.966;7.210;2022-12-29T11:45:22;5.20;;;1.20;;
5696;SDS011;2873;50.966;7.210;2022-12-29T11:47:56;3.55;;;0.80;;
5696;SDS011;2873;50.966;7.210;2022-12-29T11:50:26;4.28;;;1.10;;
5696;SDS011;2873;50.966;7.210;2022-12-29T11:53:00;4.30;;;0.90;;
5696;SDS011;2873;50.966;7.210;2022-12-29T11:55:28;4.30;;;0.70;;
5696;SDS011;2873;50.966;7.210;2022-12-29T11:57:56;3.53;;;0.90;;
5696;SDS011;2873;50.966;7.210;2022-12-29T12:00:24;4.65;;;0.80;;
5696;SDS011;2873;50.966;7.210;2022-12-29T12:03:00;5.85;;;0.90;;
5696;SDS011;2873;50.966;7.210;2022-12-29T12:05:31;4.23;;;0.80;;
5696;SDS011;2873;50.966;7.210;2022-12-29T12:08:17;3.72;;;0.60;;
5696;SDS011;2873;50.966;7.210;2022-12-29T12:19:32;3.45;;;0.82;;
5696;SDS011;2873;50.966;7.210;2022-12-29T12:22:00;4.28;;;1.00;;
5696;SDS011;2873;50.966;7.210;2022-12-29T12:24:42;4.22;;;0.80;;
5696;SDS011;2873;50.966;7.210;2022-12-29T12:27:16;1.80;;;0.90;;
5696;SDS011;2873;50.966;7.210;2022-12-29T12:29:51;5.70;;;0.80;;
5696;SDS011;2873;50.966;7.210;2022-12-29T12:32:25;6.35;;;1.08;;
5696;SDS011;2873;50.966;7.210;2022-12-29T12:35:02;3.00;;;0.70;;
5696;SDS011;2873;50.966;7.210;2022-12-29T12:42:59;3.08;;;0.70;;
5696;SDS011;2873;50.966;7.210;2022-12-29T12:45:39;5.87;;;0.73;;
5696;SDS011;2873;50.966;7.210;2022-12-29T12:51:07;4.38;;;0.90;;
5696;SDS011;2873;50.966;7.210;2022-12-29T13:01:48;5.90;;;1.00;;
5696;SDS011;2873;50.966;7.210;2022-12-29T13:07:16;2.28;;;1.00;;
5696;SDS011;2873;50.966;7.210;2022-12-29T13:10:19;1.90;;;0.50;;
5696;SDS011;2873;50.966;7.210;2022-12-29T13:13:26;3.00;;;0.93;;
5696;SDS011;2873;50.966;7.210;2022-12-29T13:16:20;6.43;;;1.00;;
5696;SDS011;2873;50.966;7.210;2022-12-29T13:19:04;3.28;;;0.90;;
5696;SDS011;2873;50.966;7.210;2022-12-29T13:24:20;3.53;;;0.95;;
5696;SDS011;2873;50.966;7.210;2022-12-29T13:26:54;3.30;;;1.00;;
5696;SDS011;2873;50.966;7.210;2022-12-29T13:37:27;6.23;;;1.10;;
5696;SDS011;2873;50.966;7.210;2022-12-29T13:40:03;2.78;;;0.90;;
5696;SDS011;2873;50.966;7.210;2022-12-29T13:42:37;7.03;;;1.20;;
5696;SDS011;2873;50.966;7.210;2022-12-29T13:47:42;4.05;;;0.80;;
5696;SDS011;2873;50.966;7.210;2022-12-29T13:50:17;4.28;;;0.80;;
5696;SDS011;2873;50.966;7.210;2022-12-29T13:52:49;7.78;;;1.63;;
5696;SDS011;2873;50.966;7.210;2022-12-29T13:55:52;4.25;;;1.05;;
5696;SDS011;2873;50.966;7.210;2022-12-29T13:58:44;6.03;;;0.93;;
5696;SDS011;2873;50.966;7.210;2022-12-29T14:03:51;4.10;;;1.00;;
5696;SDS011;2873;50.966;7.210;2022-12-29T14:06:23;4.47;;;1.05;;
5696;SDS011;2873;50.966;7.210;2022-12-29T14:11:24;3.05;;;0.80;;
5696;SDS011;2873;50.966;7.210;2022-12-29T14:13:59;2.63;;;0.90;;
5696;SDS011;2873;50.966;7.210;2022-12-29T14:16:47;3.72;;;0.93;;
5696;SDS011;2873;50.966;7.210;2022-12-29T14:19:20;4.80;;;0.90;;
5696;SDS011;2873;50.966;7.210;2022-12-29T14:21:55;5.03;;;0.80;;
5696;SDS011;2873;50.966;7.210;2022-12-29T14:24:32;1.77;;;0.77;;
5696;SDS011;2873;50.966;7.210;2022-12-29T14:34:48;5.80;;;1.50;;
5696;SDS011;2873;50.966;7.210;2022-12-29T14:37:28;3.70;;;1.00;;
5696;SDS011;2873;50.966;7.210;2022-12-29T14:40:05;5.50;;;1.35;;
5696;SDS011;2873;50.966;7.210;2022-12-29T14:42:47;3.80;;;1.13;;
5696;SDS011;2873;50.966;7.210;2022-12-29T14:47:44;2.85;;;0.73;;
5696;SDS011;2873;50.966;7.210;2022-12-29T14:58:26;4.80;;;0.80;;
5696;SDS011;2873;50.966;7.210;2022-12-29T15:00:57;4.10;;;0.95;;
5696;SDS011;2873;50.966;7.210;2022-12-29T15:06:23;4.70;;;0.80;;
5696;SDS011;2873;50.966;7.210;2022-12-29T15:11:51;3.45;;;1.10;;
5696;SDS011;2873;50.966;7.210;2022-12-29T15:14:37;6.80;;;0.98;;
5696;SDS011;2873;50.966;7.210;2022-12-29T15:17:22;5.15;;;1.02;;
5696;SDS011;2873;50.966;7.210;2022-12-29T15:19:56;4.80;;;1.33;;
5696;SDS011;2873;50.966;7.210;2022-12-29T15:22:23;8.50;;;1.17;;
5696;SDS011;2873;50.966;7.210;2022-12-29T15:24:52;7.55;;;1.50;;
5696;SDS011;2873;50.966;7.210;2022-12-29T15:27:20;3.23;;;1.10;;
5696;SDS011;2873;50.966;7.210;2022-12-29T15:29:47;6.35;;;1.48;;
5696;SDS011;2873;50.966;7.210;2022-12-29T15:34:54;5.20;;;1.40;;
5696;SDS011;2873;50.966;7.210;2022-12-29T15:37:26;4.18;;;1.13;;
5696;SDS011;2873;50.966;7.210;2022-12-29T15:39:57;6.45;;;1.33;;
5696;SDS011;2873;50.966;7.210;2022-12-29T15:45:18;5.47;;;1.30;;
5696;SDS011;2873;50.966;7.210;2022-12-29T15:47:44;4.63;;;0.93;;
5696;SDS011;2873;50.966;7.210;2022-12-29T15:52:42;4.40;;;1.20;;
5696;SDS011;2873;50.966;7.210;2022-12-29T15:55:16;5.33;;;0.90;;
5696;SDS011;2873;50.966;7.210;2022-12-29T15:57:46;5.15;;;1.00;;
5696;SDS011;2873;50.966;7.210;2022-12-29T16:00:23;5.37;;;1.10;;
5696;SDS011;2873;50.966;7.210;2022-12-29T16:02:51;3.65;;;1.02;;
5696;SDS011;2873;50.966;7.210;2022-12-29T16:05:18;4.88;;;1.10;;
5696;SDS011;2873;50.966;7.210;2022-12-29T16:07:54;6.47;;;1.08;;
5696;SDS011;2873;50.966;7.210;2022-12-29T16:10:24;6.25;;;1.20;;
5696;SDS011;2873;50.966;7.210;2022-12-29T16:12:54;4.38;;;0.98;;
5696;SDS011;2873;50.966;7.210;2022-12-29T16:15:19;7.05;;;1.30;;
5696;SDS011;2873;50.966;7.210;2022-12-29T16:17:47;4.20;;;1.40;;
5696;SDS011;2873;50.966;7.210;2022-12-29T16:20:20;4.40;;;1.00;;
5696;SDS011;2873;50.966;7.210;2022-12-29T16:23:04;5.50;;;1.20;;
5696;SDS011;2873;50.966;7.210;2022-12-29T16:25:31;6.80;;;3.28;;
5696;SDS011;2873;50.966;7.210;2022-12-29T16:27:59;7.95;;;2.35;;
5696;SDS011;2873;50.966;7.210;2022-12-29T16:30:30;3.75;;;1.20;;
5696;SDS011;2873;50.966;7.210;2022-12-29T16:32:59;6.03;;;1.40;;
5696;SDS011;2873;50.966;7.210;2022-12-29T16:35:34;8.50;;;1.50;;
5696;SDS011;2873;50.966;7.210;2022-12-29T16:38:17;5.95;;;1.30;;
5696;SDS011;2873;50.966;7.210;2022-12-29T16:40:59;8.00;;;1.40;;
5696;SDS011;2873;50.966;7.210;2022-12-29T16:43:29;5.03;;;1.40;;
5696;SDS011;2873;50.966;7.210;2022-12-29T16:48:29;4.60;;;1.00;;
5696;SDS011;2873;50.966;7.210;2022-12-29T16:51:21;3.55;;;1.40;;
5696;SDS011;2873;50.966;7.210;2022-12-29T16:54:02;7.75;;;1.52;;
5696;SDS011;2873;50.966;7.210;2022-12-29T16:56:30;4.78;;;1.30;;
5696;SDS011;2873;50.966;7.210;2022-12-29T16:59:06;6.30;;;2.40;;
5696;SDS011;2873;50.966;7.210;2022-12-29T17:01:40;5.32;;;1.52;;
5696;SDS011;2873;50.966;7.210;2022-12-29T17:04:07;4.63;;;1.50;;
5696;SDS011;2873;50.966;7.210;2022-12-29T17:06:35;10.10;;;1.10;;
5696;SDS011;2873;50.966;7.210;2022-12-29T17:09:01;6.50;;;1.17;;
5696;SDS011;2873;50.966;7.210;2022-12-29T17:11:29;8.63;;;1.33;;
5696;SDS011;2873;50.966;7.210;2022-12-29T17:16:45;5.60;;;1.23;;
5696;SDS011;2873;50.966;7.210;2022-12-29T17:19:15;3.22;;;1.10;;
5696;SDS011;2873;50.966;7.210;2022-12-29T17:21:45;4.80;;;1.10;;
5696;SDS011;2873;50.966;7.210;2022-12-29T17:24:15;1.50;;;1.00;;
5696;SDS011;2873;50.966;7.210;2022-12-29T17:26:43;8.40;;;1.50;;
5696;SDS011;2873;50.966;7.210;2022-12-29T17:29:20;7.30;;;1.30;;
5696;SDS011;2873;50.966;7.210;2022-12-29T17:31:53;5.78;;;1.50;;
5696;SDS011;2873;50.966;7.210;2022-12-29T17:34:19;4.20;;;1.10;;
5696;SDS011;2873;50.966;7.210;2022-12-29T17:36:45;8.00;;;1.90;;
5696;SDS011;2873;50.966;7.210;2022-12-29T17:39:10;6.83;;;1.53;;
5696;SDS011;2873;50.966;7.210;2022-12-29T17:41:36;8.25;;;1.85;;
5696;SDS011;2873;50.966;7.210;2022-12-29T17:44:02;5.90;;;1.60;;
5696;SDS011;2873;50.966;7.210;2022-12-29T17:46:28;3.88;;;1.40;;
5696;SDS011;2873;50.966;7.210;2022-12-29T17:48:54;7.70;;;1.50;;
5696;SDS011;2873;50.966;7.210;2022-12-29T17:51:20;7.10;;;1.50;;
5696;SDS011;2873;50.966;7.210;2022-12-29T17:53:46;5.33;;;1.50;;
5696;SDS011;2873;50.966;7.210;2022-12-29T17:56:12;6.13;;;1.77;;
5696;SDS011;2873;50.966;7.210;2022-12-29T17:58:37;8.52;;;2.70;;